Seneca, Wisconsin
Current Conditions -  °F | °C
As of 10:34 AM on Wednesday 22 Oct 2014 (Local Time) from KOVS Reporting Station
Haze Haze  
Wind Chill: 36°   Ceiling: 200
Heat Index: 40°   Visibility: 3mi
Dew Point: 38°   Wind: 6mph
Humidity: 93%   Direction: 30°NNE
Pressure: 30.34"   Gusts: NA
Location:  43.27°N, 90.96°W
Report Text: KOVS 221534Z AUTO 03005KT 3SM BR OVC002 04/03 A3034 RMK AO2 T00440033
Loading
Personal Weather Stations






























Interactive Weather Map
Tropical Storm Tracking
New forecast layout! Learn more

10-Day Weather Forecast

Advertisements
Track Severe Weather on mobile